• Join FlightAware (Why Join?)
  • Login
  • US Flag 
02:44PM EDT


 

Airport Tracker/Info


-or-


 

Live Flight TrackerFlight Track Log ✈ N523JM ✈ 07-Oct-2013 ✈ KOSU - KPBI

Flight Track Log - Related Links

Times and Time Zones

All times are in EDT time to prevent confusion due to time zone crossing. See the N523JM flight status page for this flight to view local times or setup timezone preferences in your user account.

Time Position Orientation Groundspeed Altitude Reporting Facility
EDT Latitude Longitude Course Direction KTS MPH feet Rate Location/Type
09:38AM 40.0772 -83.0914 263° West 152 175 1,700  Level Indianapolis Center
09:39AM 40.0719 -83.1453 263° West 208 239 3,100 960 Climbing Indianapolis Center
09:40AM 40.0517 -83.1703 223° Southwest 246 283 3,000 120 Descending Indianapolis Center
09:40AM 40.0117 -83.1600 169° South 265 305 3,300 1,980 Climbing Indianapolis Center
09:41AM 39.9822 -83.1506 166° South 253 291 5,100 3,900 Climbing Indianapolis Center
09:42AM 39.9122 -83.1244 164° South 260 299 9,200 3,840 Climbing Indianapolis Center
09:43AM 39.8403 -83.0647 147° Southeast 305 351 13,100 3,300 Climbing Indianapolis Center
09:44AM 39.7722 -83.0003 144° Southeast 302 348 16,100 2,700 Climbing Indianapolis Center
09:45AM 39.6944 -82.9483 153° Southeast 313 360 18,700 2,460 Climbing Indianapolis Center
09:46AM 39.6092 -82.9317 171° South 309 356 21,200 2,520 Climbing Indianapolis Center
09:47AM 39.5089 -82.9092 170° South 305 351 24,000 2,340 Climbing Indianapolis Center
09:48AM 39.4247 -82.8889 169° South 306 352 26,100 1,860 Climbing Indianapolis Center
09:49AM 39.3431 -82.8706 170° South 300 345 27,900 1,560 Climbing Indianapolis Center
09:50AM 39.2622 -82.8519 170° South 296 341 29,400 1,380 Climbing Indianapolis Center
09:51AM 39.1811 -82.8328 170° South 296 341 30,800 1,380 Climbing Indianapolis Center
09:52AM 39.0850 -82.8103 170° South 301 346 32,300 1,200 Climbing Indianapolis Center
09:53AM 39.0011 -82.7903 170° South 306 352 33,300 960 Climbing Indianapolis Center
09:54AM 38.9164 -82.7706 170° South 310 357 34,400 780 Climbing Indianapolis Center
09:55AM 38.8281 -82.7508 170° South 318 366 35,000 240 Climbing Indianapolis Center
09:56AM 38.7353 -82.7289 170° South 335 386 35,000  Level Indianapolis Center
09:57AM 38.6236 -82.7036 170° South 364 419 35,000 480 Level Indianapolis Center
09:58AM 38.5200 -82.6803 170° South 375 432 36,000 960 Climbing Indianapolis Center
09:59AM 38.4217 -82.6575 170° South 361 415 37,000 480 Climbing Indianapolis Center
10:00AM 38.3044 -82.6319 170° South 365 420 37,000  Level Indianapolis Center
10:01AM 38.1989 -82.6075 170° South 381 438 37,000  Level Indianapolis Center
10:02AM 38.0933 -82.5853 171° South 383 441 37,000  Level Indianapolis Center
10:03AM 37.9869 -82.5625 170° South 386 444 37,000  Level Indianapolis Center
10:05AM 37.8781 -82.5369 170° South 393 452 37,000  Level Indianapolis Center
10:06AM 37.7703 -82.5142 171° South 393 452 37,000  Level Indianapolis Center
10:07AM 37.6428 -82.4839 169° South 396 456 37,000  Level Indianapolis Center
10:08AM 37.5358 -82.4619 171° South 389 448 37,000 180 Level Indianapolis Center
10:09AM 37.4275 -82.4450 173° South 390 449 37,400 480 Climbing Indianapolis Center
10:10AM 37.3242 -82.4306 174° South 377 434 38,000 240 Climbing Indianapolis Center
10:11AM 37.2208 -82.4153 173° South 372 428 38,000  Level Indianapolis Center
10:12AM 37.1147 -82.4014 174° South 378 435 38,000  Level Indianapolis Center
10:13AM 36.9886 -82.3828 173° South 385 443 38,000  Level Indianapolis Center
10:14AM 36.8794 -82.3675 174° South 389 448 38,000  Level Indianapolis Center
10:15AM 36.7689 -82.3503 173° South 395 455 38,000  Level Indianapolis Center
10:16AM 36.6583 -82.3358 174° South 396 456 38,000  Level Indianapolis Center
10:17AM 36.5300 -82.3181 174° South 398 458 38,000 240 Level Atlanta Center
10:18AM 36.4194 -82.3025 174° South 398 458 38,600 480 Climbing Atlanta Center
10:19AM 36.3253 -82.2889 173° South 393 452 39,000 180 Climbing Atlanta Center
10:20AM 36.2208 -82.2758 174° South 386 444 39,000  Level Atlanta Center
10:21AM 36.1122 -82.2603 173° South 386 444 39,000  Level Atlanta Center
10:22AM 36.0036 -82.2472 174° South 386 444 39,000  Level Atlanta Center
10:23AM 35.8864 -82.2317 174° South 386 444 39,000  Level Atlanta Center
10:24AM 35.7736 -82.2189 175° South 399 459 39,000  Level Atlanta Center
10:25AM 35.6628 -82.2036 174° South 405 466 39,000  Level Atlanta Center
10:26AM 35.5500 -82.1856 173° South 410 472 39,000  Level Atlanta Center
10:27AM 35.4392 -82.1703 174° South 410 472 39,000  Level Atlanta Center
10:28AM 35.3242 -82.1550 174° South 410 472 39,000  Level Atlanta Center
10:29AM 35.2111 -82.1425 175° South 410 472 39,000  Level Atlanta Center
10:30AM 35.0983 -82.1247 173° South 410 472 39,000  Level Atlanta Center
10:31AM 34.9853 -82.1119 175° South 411 473 39,000  Level Atlanta Center
10:32AM 34.8869 -82.0942 172° South 411 473 39,000  Level Atlanta Center
10:33AM 34.7719 -82.0767 173° South 411 473 39,000  Level Atlanta Center
10:34AM 34.6611 -82.0639 175° South 406 467 39,000  Level Atlanta Center
10:35AM 34.5442 -82.0467 173° South 412 474 39,000  Level Atlanta Center
10:36AM 34.4289 -82.0317 174° South 412 474 39,000  Level Atlanta Center
10:37AM 34.3119 -82.0142 173° South 412 474 39,000  Level Atlanta Center
10:38AM 34.1989 -81.9994 174° South 417 480 39,000  Level Atlanta Center
10:39AM 34.0817 -81.9847 174° South 423 487 39,000  Level Atlanta Center
10:40AM 33.9667 -81.9675 173° South 423 487 39,000 300 Level Atlanta Center
10:41AM 33.8517 -81.9553 175° South 423 487 39,600 480 Climbing Atlanta Center
10:42AM 33.7408 -81.9403 174° South 418 481 40,000 180 Climbing Atlanta Center
10:43AM 33.6278 -81.9256 174° South 413 475 40,000  Level Atlanta Center
10:44AM 33.5147 -81.9086 173° South 408 470 40,000  Level Atlanta Center
10:45AM 33.3997 -81.8939 174° South 408 470 40,000  Level Atlanta Center
10:46AM 33.2869 -81.8819 175° South 408 470 40,000  Level Atlanta Center
10:47AM 33.1717 -81.8647 173° South 408 470 40,000  Level Atlanta Center
10:48AM 33.0567 -81.8503 174° South 413 475 40,000  Level Atlanta Center
10:49AM 32.9408 -81.8356 174° South 413 475 40,000  Level Jacksonville Center
10:50AM 32.8258 -81.8197 173° South 413 475 40,000  Level Jacksonville Center
10:51AM 32.7089 -81.8086 175° South 413 475 40,000  Level Jacksonville Center
10:52AM 32.5939 -81.7953 174° South 418 481 40,000  Level Jacksonville Center
10:53AM 32.4769 -81.7794 173° South 428 493 40,000  Level Jacksonville Center
10:54AM 32.3725 -81.7683 175° South 428 493 40,000  Level Jacksonville Center
10:55AM 32.2428 -81.7506 173° South 428 493 40,000  Level Jacksonville Center
10:56AM 32.1383 -81.7369 174° South 420 483 40,000  Level Jacksonville Center
10:57AM 32.0067 -81.7214 174° South 431 496 40,000  Level Jacksonville Center
10:58AM 31.8917 -81.7058 173° South 426 490 40,000  Level Jacksonville Center
10:59AM 31.7831 -81.6925 174° South 426 490 40,000  Level Jacksonville Center
11:00AM 31.6556 -81.6747 173° South 426 490 40,000  Level Jacksonville Center
11:01AM 31.5467 -81.6589 173° South 426 490 40,000  Level Jacksonville Center
11:02AM 31.4150 -81.6414 174° South 426 490 40,000  Level Jacksonville Center
11:03AM 31.3106 -81.6331 176° South 426 490 40,000  Level Jacksonville Center
11:04AM 31.1914 -81.6175 174° South 426 490 40,000  Level Jacksonville Center
11:05AM 31.0700 -81.6022 174° South 431 496 40,000  Level Jacksonville Center
11:06AM 30.9467 -81.5869 174° South 436 502 40,000  Level Jacksonville Center
11:07AM 30.8256 -81.5717 174° South 441 507 40,000  Level Jacksonville Center
11:08AM 30.7042 -81.5564 174° South 441 507 40,000  Level Jacksonville Center
11:09AM 30.5831 -81.5389 173° South 446 513 40,000  Level Jacksonville Center
11:10AM 30.4614 -81.5044 166° South 446 513 40,000  Level Jacksonville Center
11:11AM 30.3419 -81.4461 157° South 453 521 40,000  Level Jacksonville Center
11:12AM 30.2242 -81.3900 158° South 453 521 40,000  Level Jacksonville Center
11:13AM 30.1047 -81.3344 158° South 458 527 40,000  Level Jacksonville Center
11:14AM 29.9892 -81.2811 158° South 458 527 40,000  Level Jacksonville Center
11:15AM 29.8694 -81.2231 157° South 458 527 40,000  Level Jacksonville Center
11:16AM 29.7475 -81.1678 159° South 458 527 40,000 -480 Level Jacksonville Center
11:18AM 29.5033 -81.0519 158° South 470 541 38,600 -900 Descending Miami Center
11:19AM 29.3822 -80.9947 158° South 470 541 37,500 -1,200 Descending Miami Center
11:20AM 29.2586 -80.9403 159° South 475 547 36,300 -1,200 Descending Miami Center
11:21AM 29.1350 -80.8808 157° South 475 547 35,200 -1,200 Descending Miami Center
11:22AM 29.0119 -80.8147 155° Southeast 485 558 34,000 -600 Descending Miami Center
11:23AM 28.8950 -80.7419 151° Southeast 485 558 34,000  Level Miami Center
11:24AM 28.7758 -80.6667 151° Southeast 485 558 34,000 -540 Level Miami Center
11:25AM 28.6547 -80.5939 152° Southeast 490 564 33,000 -1,200 Descending Miami Center
11:26AM 28.5419 -80.5239 151° Southeast 495 570 31,700 -1,260 Descending Miami Center
11:27AM 28.4206 -80.4492 152° Southeast 500 575 30,500 -1,380 Descending Miami Center
11:28AM 28.2850 -80.3647 151° Southeast 505 581 29,000 -1,440 Descending Miami Center
11:29AM 28.1575 -80.2903 153° Southeast 505 581 27,700 -1,500 Descending Miami Center
11:30AM 28.0269 -80.2414 162° South 505 581 26,100 -1,860 Descending Miami Center
11:31AM 27.9086 -80.2239 173° South 487 560 24,000 2,580 Descending Miami Center
11:33AM 27.6650 -80.1886 173° South 456 525 34,000 3,300 Climbing Miami Center
11:34AM 27.5361 -80.1683 172° South 459 528 34,000  Level Miami Center
11:35AM 27.4319 -80.1561 174° South 415 478 34,000  Level Miami Center
11:36AM 27.3550 -80.1422 171° South 343 395 34,000  Level Miami Center
11:37AM 27.2781 -80.1353 175° South 292 336 34,000  Level Miami Center
11:38AM 27.1992 -80.1075 163° South 275 316 34,000  Level Miami Center
11:39AM 27.1269 -80.0706 156° South 285 328 34,000  Level Miami Center
11:40AM 27.0589 -80.0358 156° South 285 328 34,000  Level Miami Center
11:41AM 26.9989 -79.9992 151° Southeast 280 322 34,000  Level Miami Center
11:42AM 26.9308 -79.9694 159° South 269 310 34,000  Level Miami Center
11:43AM 26.8642 -79.9608 173° South 233 268 34,000  Level Miami Center
11:44AM 26.8122 -79.9500 169° South 208 239 34,000  Level Miami Center
11:45AM 26.7600 -79.9442 174° South 203 234 34,000  Level Miami Center
11:46AM 26.7033 -79.9564 191° South 192 221 34,000  Level Miami Center
11:47AM 26.6797 -79.9931 234° Southwest 175 201 34,000  Level Miami Center
11:48AM 26.6786 -80.0464 269° West 157 181 34,000  Level Miami Center
11:49AM 26.6631 -80.0878 247° West 157 181 34,000  Level Miami Center
11:51AM 26.6667 -80.0833 270° West  Level FlightAware Approximate
11:58AM 26.6832 -80.0956 270° West  Level Estimated